sensor_id;sensor_type;location;lat;lon;timestamp;temperature;humidity
48998;DHT22;34807;51.456;7.244;2023-10-19T00:01:07;11.90;95.70
48998;DHT22;34807;51.456;7.244;2023-10-19T00:03:34;11.90;95.60
48998;DHT22;34807;51.456;7.244;2023-10-19T00:05:59;11.90;95.70
48998;DHT22;34807;51.456;7.244;2023-10-19T00:08:25;11.90;95.70
48998;DHT22;34807;51.456;7.244;2023-10-19T00:10:51;11.90;95.70
48998;DHT22;34807;51.456;7.244;2023-10-19T00:13:36;11.90;95.80
48998;DHT22;34807;51.456;7.244;2023-10-19T00:16:03;11.90;95.70
48998;DHT22;34807;51.456;7.244;2023-10-19T00:18:37;11.90;95.80
48998;DHT22;34807;51.456;7.244;2023-10-19T00:21:07;11.90;95.90
48998;DHT22;34807;51.456;7.244;2023-10-19T00:23:52;11.90;95.80
48998;DHT22;34807;51.456;7.244;2023-10-19T00:26:21;11.90;95.70
48998;DHT22;34807;51.456;7.244;2023-10-19T00:28:50;11.90;95.80
48998;DHT22;34807;51.456;7.244;2023-10-19T00:31:19;11.90;95.80
48998;DHT22;34807;51.456;7.244;2023-10-19T00:33:45;11.90;95.90
48998;DHT22;34807;51.456;7.244;2023-10-19T00:36:11;11.90;95.90
48998;DHT22;34807;51.456;7.244;2023-10-19T00:38:40;11.90;95.90
48998;DHT22;34807;51.456;7.244;2023-10-19T00:41:13;11.90;95.90
48998;DHT22;34807;51.456;7.244;2023-10-19T00:43:39;11.90;95.90
48998;DHT22;34807;51.456;7.244;2023-10-19T00:46:08;11.90;96.00
48998;DHT22;34807;51.456;7.244;2023-10-19T00:48:55;12.00;96.00
48998;DHT22;34807;51.456;7.244;2023-10-19T00:51:25;11.90;96.10
48998;DHT22;34807;51.456;7.244;2023-10-19T00:53:58;12.00;96.00
48998;DHT22;34807;51.456;7.244;2023-10-19T00:56:25;12.00;96.00
48998;DHT22;34807;51.456;7.244;2023-10-19T00:58:54;12.00;96.10
48998;DHT22;34807;51.456;7.244;2023-10-19T01:01:26;12.00;96.20
48998;DHT22;34807;51.456;7.244;2023-10-19T01:03:54;12.00;96.10
48998;DHT22;34807;51.456;7.244;2023-10-19T01:06:22;12.00;96.20
48998;DHT22;34807;51.456;7.244;2023-10-19T01:08:48;12.00;96.20
48998;DHT22;34807;51.456;7.244;2023-10-19T01:11:16;12.00;96.30
48998;DHT22;34807;51.456;7.244;2023-10-19T01:13:45;12.00;96.30
48998;DHT22;34807;51.456;7.244;2023-10-19T01:16:12;12.00;96.40
48998;DHT22;34807;51.456;7.244;2023-10-19T01:18:46;12.00;96.30
48998;DHT22;34807;51.456;7.244;2023-10-19T01:21:11;12.00;96.30
48998;DHT22;34807;51.456;7.244;2023-10-19T01:23:37;12.00;96.30
48998;DHT22;34807;51.456;7.244;2023-10-19T01:26:04;12.00;96.40
48998;DHT22;34807;51.456;7.244;2023-10-19T01:28:43;12.10;96.40
48998;DHT22;34807;51.456;7.244;2023-10-19T01:33:54;12.10;96.30
48998;DHT22;34807;51.456;7.244;2023-10-19T01:36:23;12.00;96.40
48998;DHT22;34807;51.456;7.244;2023-10-19T01:38:49;12.00;96.60
48998;DHT22;34807;51.456;7.244;2023-10-19T01:41:15;12.10;96.40
48998;DHT22;34807;51.456;7.244;2023-10-19T01:43:44;12.10;96.40
48998;DHT22;34807;51.456;7.244;2023-10-19T01:46:10;12.10;96.40
48998;DHT22;34807;51.456;7.244;2023-10-19T01:48:42;12.10;96.40
48998;DHT22;34807;51.456;7.244;2023-10-19T01:51:08;12.10;96.30
48998;DHT22;34807;51.456;7.244;2023-10-19T01:53:38;12.10;96.50
48998;DHT22;34807;51.456;7.244;2023-10-19T01:56:10;12.10;96.30
48998;DHT22;34807;51.456;7.244;2023-10-19T01:58:36;12.10;96.40
48998;DHT22;34807;51.456;7.244;2023-10-19T02:01:05;12.10;96.50
48998;DHT22;34807;51.456;7.244;2023-10-19T02:03:55;12.20;96.50
48998;DHT22;34807;51.456;7.244;2023-10-19T02:06:23;12.20;96.50
48998;DHT22;34807;51.456;7.244;2023-10-19T02:09:06;12.20;96.50
48998;DHT22;34807;51.456;7.244;2023-10-19T02:11:42;12.20;96.40
48998;DHT22;34807;51.456;7.244;2023-10-19T02:14:08;12.20;96.40
48998;DHT22;34807;51.456;7.244;2023-10-19T02:16:46;12.20;96.40
48998;DHT22;34807;51.456;7.244;2023-10-19T02:19:18;12.20;96.50
48998;DHT22;34807;51.456;7.244;2023-10-19T02:21:45;12.20;96.40
48998;DHT22;34807;51.456;7.244;2023-10-19T02:24:13;12.20;96.40
48998;DHT22;34807;51.456;7.244;2023-10-19T02:26:40;12.20;96.30
48998;DHT22;34807;51.456;7.244;2023-10-19T02:29:06;12.20;96.40
48998;DHT22;34807;51.456;7.244;2023-10-19T02:31:35;12.20;96.30
48998;DHT22;34807;51.456;7.244;2023-10-19T02:34:03;12.20;96.20
48998;DHT22;34807;51.456;7.244;2023-10-19T02:36:30;12.30;96.30
48998;DHT22;34807;51.456;7.244;2023-10-19T02:38:56;12.30;96.30
48998;DHT22;34807;51.456;7.244;2023-10-19T02:41:27;12.30;96.20
48998;DHT22;34807;51.456;7.244;2023-10-19T02:43:53;12.30;96.20
48998;DHT22;34807;51.456;7.244;2023-10-19T02:46:35;12.30;96.20
48998;DHT22;34807;51.456;7.244;2023-10-19T02:49:04;12.20;96.20
48998;DHT22;34807;51.456;7.244;2023-10-19T02:51:35;12.30;96.40
48998;DHT22;34807;51.456;7.244;2023-10-19T02:54:02;12.30;96.20
48998;DHT22;34807;51.456;7.244;2023-10-19T02:56:28;12.30;96.20
48998;DHT22;34807;51.456;7.244;2023-10-19T02:58:55;12.30;96.20
48998;DHT22;34807;51.456;7.244;2023-10-19T03:01:27;12.30;96.20
48998;DHT22;34807;51.456;7.244;2023-10-19T03:03:56;12.30;96.20
48998;DHT22;34807;51.456;7.244;2023-10-19T03:06:26;12.30;96.10
48998;DHT22;34807;51.456;7.244;2023-10-19T03:08:51;12.30;96.30
48998;DHT22;34807;51.456;7.244;2023-10-19T03:11:26;12.40;96.20
48998;DHT22;34807;51.456;7.244;2023-10-19T03:13:53;12.30;96.40
48998;DHT22;34807;51.456;7.244;2023-10-19T03:16:18;12.30;96.40
48998;DHT22;34807;51.456;7.244;2023-10-19T03:18:45;12.40;96.30
48998;DHT22;34807;51.456;7.244;2023-10-19T03:21:11;12.40;96.40
48998;DHT22;34807;51.456;7.244;2023-10-19T03:23:36;12.40;96.50
48998;DHT22;34807;51.456;7.244;2023-10-19T03:26:03;12.40;96.40
48998;DHT22;34807;51.456;7.244;2023-10-19T03:28:48;12.40;96.40
48998;DHT22;34807;51.456;7.244;2023-10-19T03:31:13;12.40;96.30
48998;DHT22;34807;51.456;7.244;2023-10-19T03:33:46;12.40;96.40
48998;DHT22;34807;51.456;7.244;2023-10-19T03:36:19;12.40;96.30
48998;DHT22;34807;51.456;7.244;2023-10-19T03:38:44;12.40;96.20
48998;DHT22;34807;51.456;7.244;2023-10-19T03:41:11;12.40;96.20
48998;DHT22;34807;51.456;7.244;2023-10-19T03:43:36;12.40;96.20
48998;DHT22;34807;51.456;7.244;2023-10-19T03:46:06;12.40;96.20
48998;DHT22;34807;51.456;7.244;2023-10-19T03:48:40;12.40;96.10
48998;DHT22;34807;51.456;7.244;2023-10-19T03:51:05;12.40;96.10
48998;DHT22;34807;51.456;7.244;2023-10-19T03:53:31;12.40;96.10
48998;DHT22;34807;51.456;7.244;2023-10-19T03:55:58;12.40;96.10
48998;DHT22;34807;51.456;7.244;2023-10-19T03:58:23;12.40;96.00
48998;DHT22;34807;51.456;7.244;2023-10-19T04:00:49;12.50;96.10
48998;DHT22;34807;51.456;7.244;2023-10-19T04:03:15;12.40;96.00
48998;DHT22;34807;51.456;7.244;2023-10-19T04:05:43;12.40;96.00
48998;DHT22;34807;51.456;7.244;2023-10-19T04:08:12;12.40;96.00
48998;DHT22;34807;51.456;7.244;2023-10-19T04:10:45;12.40;96.00
48998;DHT22;34807;51.456;7.244;2023-10-19T04:13:13;12.40;96.00
48998;DHT22;34807;51.456;7.244;2023-10-19T04:15:39;12.40;96.00
48998;DHT22;34807;51.456;7.244;2023-10-19T04:18:04;12.40;96.00
48998;DHT22;34807;51.456;7.244;2023-10-19T04:20:36;12.50;96.00
48998;DHT22;34807;51.456;7.244;2023-10-19T04:23:20;12.40;96.00
48998;DHT22;34807;51.456;7.244;2023-10-19T04:25:46;12.50;96.00
48998;DHT22;34807;51.456;7.244;2023-10-19T04:28:12;12.50;96.00
48998;DHT22;34807;51.456;7.244;2023-10-19T04:30:39;12.40;96.00
48998;DHT22;34807;51.456;7.244;2023-10-19T04:33:05;12.50;96.00
48998;DHT22;34807;51.456;7.244;2023-10-19T04:35:37;12.40;96.00
48998;DHT22;34807;51.456;7.244;2023-10-19T04:38:06;12.50;96.00
48998;DHT22;34807;51.456;7.244;2023-10-19T04:40:31;12.40;96.00
48998;DHT22;34807;51.456;7.244;2023-10-19T04:42:57;12.40;96.00
48998;DHT22;34807;51.456;7.244;2023-10-19T04:45:23;12.50;96.00
48998;DHT22;34807;51.456;7.244;2023-10-19T04:47:52;12.40;96.00
48998;DHT22;34807;51.456;7.244;2023-10-19T04:50:18;12.40;96.00
48998;DHT22;34807;51.456;7.244;2023-10-19T04:52:44;12.50;96.00
48998;DHT22;34807;51.456;7.244;2023-10-19T04:55:09;12.50;96.00
48998;DHT22;34807;51.456;7.244;2023-10-19T04:57:35;12.40;96.00
48998;DHT22;34807;51.456;7.244;2023-10-19T05:00:01;12.40;96.00
48998;DHT22;34807;51.456;7.244;2023-10-19T05:02:27;12.50;96.00
48998;DHT22;34807;51.456;7.244;2023-10-19T05:04:52;12.50;96.00
48998;DHT22;34807;51.456;7.244;2023-10-19T05:07:18;12.50;96.00
48998;DHT22;34807;51.456;7.244;2023-10-19T05:09:43;12.40;96.00
48998;DHT22;34807;51.456;7.244;2023-10-19T05:12:09;12.50;96.00
48998;DHT22;34807;51.456;7.244;2023-10-19T05:14:35;12.50;96.00
48998;DHT22;34807;51.456;7.244;2023-10-19T05:17:04;12.50;96.00
48998;DHT22;34807;51.456;7.244;2023-10-19T05:19:33;12.50;96.00
48998;DHT22;34807;51.456;7.244;2023-10-19T05:21:59;12.50;96.00
48998;DHT22;34807;51.456;7.244;2023-10-19T05:24:25;12.50;96.00
48998;DHT22;34807;51.456;7.244;2023-10-19T05:26:51;12.50;96.00
48998;DHT22;34807;51.456;7.244;2023-10-19T05:29:19;12.50;96.00
48998;DHT22;34807;51.456;7.244;2023-10-19T05:31:44;12.50;95.90
48998;DHT22;34807;51.456;7.244;2023-10-19T05:34:10;12.50;96.00
48998;DHT22;34807;51.456;7.244;2023-10-19T05:36:35;12.50;96.00
48998;DHT22;34807;51.456;7.244;2023-10-19T05:39:01;12.50;96.00
48998;DHT22;34807;51.456;7.244;2023-10-19T05:41:29;12.50;96.00
48998;DHT22;34807;51.456;7.244;2023-10-19T05:43:56;12.50;96.00
48998;DHT22;34807;51.456;7.244;2023-10-19T05:46:22;12.50;96.00
48998;DHT22;34807;51.456;7.244;2023-10-19T05:48:50;12.50;96.00
48998;DHT22;34807;51.456;7.244;2023-10-19T05:51:16;12.40;96.00
48998;DHT22;34807;51.456;7.244;2023-10-19T05:53:42;12.50;96.00
48998;DHT22;34807;51.456;7.244;2023-10-19T05:56:10;12.50;96.10
48998;DHT22;34807;51.456;7.244;2023-10-19T05:58:36;12.40;96.00
48998;DHT22;34807;51.456;7.244;2023-10-19T06:01:01;12.50;96.10
48998;DHT22;34807;51.456;7.244;2023-10-19T06:03:27;12.40;96.10
48998;DHT22;34807;51.456;7.244;2023-10-19T06:05:53;12.40;96.10
48998;DHT22;34807;51.456;7.244;2023-10-19T06:08:24;12.40;96.10
48998;DHT22;34807;51.456;7.244;2023-10-19T06:10:53;12.40;96.10
48998;DHT22;34807;51.456;7.244;2023-10-19T06:13:19;12.40;96.10
48998;DHT22;34807;51.456;7.244;2023-10-19T06:15:44;12.40;96.10
48998;DHT22;34807;51.456;7.244;2023-10-19T06:18:10;12.40;96.40
48998;DHT22;34807;51.456;7.244;2023-10-19T06:20:36;12.40;96.10
48998;DHT22;34807;51.456;7.244;2023-10-19T06:23:02;12.40;96.10
48998;DHT22;34807;51.456;7.244;2023-10-19T06:25:31;12.40;96.20
48998;DHT22;34807;51.456;7.244;2023-10-19T06:27:57;12.40;96.10
48998;DHT22;34807;51.456;7.244;2023-10-19T06:30:23;12.40;96.10
48998;DHT22;34807;51.456;7.244;2023-10-19T06:32:49;12.40;96.20
48998;DHT22;34807;51.456;7.244;2023-10-19T06:35:19;12.40;96.10
48998;DHT22;34807;51.456;7.244;2023-10-19T06:37:45;12.40;96.10
48998;DHT22;34807;51.456;7.244;2023-10-19T06:40:11;12.40;96.20
48998;DHT22;34807;51.456;7.244;2023-10-19T06:42:38;12.40;96.20
48998;DHT22;34807;51.456;7.244;2023-10-19T06:45:03;12.40;96.20
48998;DHT22;34807;51.456;7.244;2023-10-19T06:47:29;12.40;96.20
48998;DHT22;34807;51.456;7.244;2023-10-19T06:49:55;12.40;96.10
48998;DHT22;34807;51.456;7.244;2023-10-19T06:52:21;12.40;96.10
48998;DHT22;34807;51.456;7.244;2023-10-19T06:54:47;12.40;96.10
48998;DHT22;34807;51.456;7.244;2023-10-19T06:57:12;12.40;96.10
48998;DHT22;34807;51.456;7.244;2023-10-19T06:59:38;12.40;96.10
48998;DHT22;34807;51.456;7.244;2023-10-19T07:02:04;12.50;96.00
48998;DHT22;34807;51.456;7.244;2023-10-19T07:04:29;12.50;96.10
48998;DHT22;34807;51.456;7.244;2023-10-19T07:06:55;12.40;96.00
48998;DHT22;34807;51.456;7.244;2023-10-19T07:09:21;12.40;96.00
48998;DHT22;34807;51.456;7.244;2023-10-19T07:11:48;12.50;96.00
48998;DHT22;34807;51.456;7.244;2023-10-19T07:14:18;12.50;96.00
48998;DHT22;34807;51.456;7.244;2023-10-19T07:16:44;12.50;96.00
48998;DHT22;34807;51.456;7.244;2023-10-19T07:19:10;12.50;96.00
48998;DHT22;34807;51.456;7.244;2023-10-19T07:21:35;12.50;95.90
48998;DHT22;34807;51.456;7.244;2023-10-19T07:24:03;12.50;95.90
48998;DHT22;34807;51.456;7.244;2023-10-19T07:26:31;12.50;95.90
48998;DHT22;34807;51.456;7.244;2023-10-19T07:29:01;12.50;95.90
48998;DHT22;34807;51.456;7.244;2023-10-19T07:31:27;12.50;95.90
48998;DHT22;34807;51.456;7.244;2023-10-19T07:33:53;12.50;96.00
48998;DHT22;34807;51.456;7.244;2023-10-19T07:36:21;12.60;96.00
48998;DHT22;34807;51.456;7.244;2023-10-19T07:38:46;12.60;96.00
48998;DHT22;34807;51.456;7.244;2023-10-19T07:41:13;12.50;95.90
48998;DHT22;34807;51.456;7.244;2023-10-19T07:43:38;12.60;96.00
48998;DHT22;34807;51.456;7.244;2023-10-19T07:46:04;12.60;95.90
48998;DHT22;34807;51.456;7.244;2023-10-19T07:48:29;12.60;95.90
48998;DHT22;34807;51.456;7.244;2023-10-19T07:50:55;12.60;95.90
48998;DHT22;34807;51.456;7.244;2023-10-19T07:53:21;12.60;95.90
48998;DHT22;34807;51.456;7.244;2023-10-19T07:55:46;12.70;96.00
48998;DHT22;34807;51.456;7.244;2023-10-19T07:58:12;12.70;95.90
48998;DHT22;34807;51.456;7.244;2023-10-19T08:00:38;12.70;95.90
48998;DHT22;34807;51.456;7.244;2023-10-19T08:03:04;12.70;95.90
48998;DHT22;34807;51.456;7.244;2023-10-19T08:05:30;12.70;95.90
48998;DHT22;34807;51.456;7.244;2023-10-19T08:07:55;12.70;95.90
48998;DHT22;34807;51.456;7.244;2023-10-19T08:10:23;12.70;95.80
48998;DHT22;34807;51.456;7.244;2023-10-19T08:12:50;12.70;95.80
48998;DHT22;34807;51.456;7.244;2023-10-19T08:15:17;12.80;95.80
48998;DHT22;34807;51.456;7.244;2023-10-19T08:17:45;12.80;95.80
48998;DHT22;34807;51.456;7.244;2023-10-19T08:20:11;12.80;95.90
48998;DHT22;34807;51.456;7.244;2023-10-19T08:22:57;12.80;95.90
48998;DHT22;34807;51.456;7.244;2023-10-19T08:25:23;12.80;95.80
48998;DHT22;34807;51.456;7.244;2023-10-19T08:27:49;12.90;95.90
48998;DHT22;34807;51.456;7.244;2023-10-19T08:30:18;12.90;95.80
48998;DHT22;34807;51.456;7.244;2023-10-19T08:32:45;12.90;96.00
48998;DHT22;34807;51.456;7.244;2023-10-19T08:35:16;12.90;95.90
48998;DHT22;34807;51.456;7.244;2023-10-19T08:37:46;13.00;95.80
48998;DHT22;34807;51.456;7.244;2023-10-19T08:40:12;13.00;96.00
48998;DHT22;34807;51.456;7.244;2023-10-19T08:42:42;13.00;95.80
48998;DHT22;34807;51.456;7.244;2023-10-19T09:59:29;14.10;95.40
48998;DHT22;34807;51.456;7.244;2023-10-19T10:02:13;14.10;95.30
48998;DHT22;34807;51.456;7.244;2023-10-19T10:04:40;14.20;95.60
48998;DHT22;34807;51.456;7.244;2023-10-19T10:07:06;14.20;95.70
48998;DHT22;34807;51.456;7.244;2023-10-19T10:09:36;14.30;95.90
48998;DHT22;34807;51.456;7.244;2023-10-19T10:15:04;14.30;95.70
48998;DHT22;34807;51.456;7.244;2023-10-19T10:17:36;14.30;95.50
48998;DHT22;34807;51.456;7.244;2023-10-19T10:20:35;14.30;95.30
48998;DHT22;34807;51.456;7.244;2023-10-19T10:23:15;14.30;95.60
48998;DHT22;34807;51.456;7.244;2023-10-19T10:25:41;14.40;95.50
48998;DHT22;34807;51.456;7.244;2023-10-19T10:28:14;14.50;95.50
48998;DHT22;34807;51.456;7.244;2023-10-19T10:31:06;14.60;95.70
48998;DHT22;34807;51.456;7.244;2023-10-19T10:33:38;14.60;95.90
48998;DHT22;34807;51.456;7.244;2023-10-19T10:36:05;14.70;95.40
48998;DHT22;34807;51.456;7.244;2023-10-19T10:38:34;14.80;95.30
48998;DHT22;34807;51.456;7.244;2023-10-19T10:41:02;14.80;95.20
48998;DHT22;34807;51.456;7.244;2023-10-19T10:43:28;14.90;95.40
48998;DHT22;34807;51.456;7.244;2023-10-19T10:46:04;14.90;95.50
48998;DHT22;34807;51.456;7.244;2023-10-19T10:48:30;14.90;95.20
48998;DHT22;34807;51.456;7.244;2023-10-19T10:50:55;15.00;95.20
48998;DHT22;34807;51.456;7.244;2023-10-19T10:53:22;15.00;95.20
48998;DHT22;34807;51.456;7.244;2023-10-19T10:55:50;15.10;95.10
48998;DHT22;34807;51.456;7.244;2023-10-19T10:58:18;15.20;94.90
48998;DHT22;34807;51.456;7.244;2023-10-19T11:00:44;15.30;95.00
48998;DHT22;34807;51.456;7.244;2023-10-19T11:03:12;15.20;95.10
48998;DHT22;34807;51.456;7.244;2023-10-19T11:05:39;15.30;95.00
48998;DHT22;34807;51.456;7.244;2023-10-19T11:08:08;15.30;95.20
48998;DHT22;34807;51.456;7.244;2023-10-19T11:10:35;15.30;95.30
48998;DHT22;34807;51.456;7.244;2023-10-19T11:13:08;15.40;95.30
48998;DHT22;34807;51.456;7.244;2023-10-19T11:15:34;15.40;95.20
48998;DHT22;34807;51.456;7.244;2023-10-19T11:18:00;15.40;95.00
48998;DHT22;34807;51.456;7.244;2023-10-19T11:20:27;15.40;95.10
48998;DHT22;34807;51.456;7.244;2023-10-19T11:22:53;15.40;95.10
48998;DHT22;34807;51.456;7.244;2023-10-19T11:25:24;15.50;95.10
48998;DHT22;34807;51.456;7.244;2023-10-19T11:27:59;15.50;95.20
48998;DHT22;34807;51.456;7.244;2023-10-19T11:30:29;15.50;95.20
48998;DHT22;34807;51.456;7.244;2023-10-19T11:32:56;15.60;95.60
48998;DHT22;34807;51.456;7.244;2023-10-19T11:35:23;15.60;95.20
48998;DHT22;34807;51.456;7.244;2023-10-19T11:37:52;15.60;95.20
48998;DHT22;34807;51.456;7.244;2023-10-19T11:40:18;15.60;95.20
48998;DHT22;34807;51.456;7.244;2023-10-19T11:42:44;15.70;95.20
48998;DHT22;34807;51.456;7.244;2023-10-19T11:45:10;15.70;95.20
48998;DHT22;34807;51.456;7.244;2023-10-19T11:47:37;15.70;95.10
48998;DHT22;34807;51.456;7.244;2023-10-19T11:50:02;15.70;95.10
48998;DHT22;34807;51.456;7.244;2023-10-19T11:52:28;15.80;95.20
48998;DHT22;34807;51.456;7.244;2023-10-19T11:54:55;15.90;95.00
48998;DHT22;34807;51.456;7.244;2023-10-19T11:57:21;15.90;95.00
48998;DHT22;34807;51.456;7.244;2023-10-19T11:59:47;16.00;94.90
48998;DHT22;34807;51.456;7.244;2023-10-19T12:02:20;16.00;94.90
48998;DHT22;34807;51.456;7.244;2023-10-19T12:04:46;16.00;95.10
48998;DHT22;34807;51.456;7.244;2023-10-19T12:07:12;16.00;95.00
48998;DHT22;34807;51.456;7.244;2023-10-19T12:09:37;16.00;95.00
48998;DHT22;34807;51.456;7.244;2023-10-19T12:12:09;16.10;95.20
48998;DHT22;34807;51.456;7.244;2023-10-19T12:14:36;16.10;95.00
48998;DHT22;34807;51.456;7.244;2023-10-19T12:17:01;16.20;95.20
48998;DHT22;34807;51.456;7.244;2023-10-19T12:19:30;16.20;95.00
48998;DHT22;34807;51.456;7.244;2023-10-19T12:21:56;16.20;95.20
48998;DHT22;34807;51.456;7.244;2023-10-19T12:24:22;16.20;95.20
48998;DHT22;34807;51.456;7.244;2023-10-19T12:26:48;16.30;94.90
48998;DHT22;34807;51.456;7.244;2023-10-19T12:29:14;16.30;95.00
48998;DHT22;34807;51.456;7.244;2023-10-19T12:31:42;16.30;95.00
48998;DHT22;34807;51.456;7.244;2023-10-19T12:34:08;16.30;95.00
48998;DHT22;34807;51.456;7.244;2023-10-19T12:36:34;16.30;95.00
48998;DHT22;34807;51.456;7.244;2023-10-19T12:39:00;16.30;95.00
48998;DHT22;34807;51.456;7.244;2023-10-19T12:41:26;16.30;94.90
48998;DHT22;34807;51.456;7.244;2023-10-19T12:43:52;16.40;95.20
48998;DHT22;34807;51.456;7.244;2023-10-19T12:46:23;16.40;94.90
48998;DHT22;34807;51.456;7.244;2023-10-19T12:48:53;16.40;95.20
48998;DHT22;34807;51.456;7.244;2023-10-19T12:51:21;16.40;95.10
48998;DHT22;34807;51.456;7.244;2023-10-19T12:53:53;16.40;95.20
48998;DHT22;34807;51.456;7.244;2023-10-19T12:56:19;16.40;95.20
48998;DHT22;34807;51.456;7.244;2023-10-19T12:58:44;16.40;95.20
48998;DHT22;34807;51.456;7.244;2023-10-19T13:01:10;16.40;95.10
48998;DHT22;34807;51.456;7.244;2023-10-19T13:03:45;16.30;95.20
48998;DHT22;34807;51.456;7.244;2023-10-19T13:06:14;16.30;95.60
48998;DHT22;34807;51.456;7.244;2023-10-19T13:08:39;16.30;95.70
48998;DHT22;34807;51.456;7.244;2023-10-19T13:11:09;16.30;95.70
48998;DHT22;34807;51.456;7.244;2023-10-19T13:13:35;16.30;95.90
48998;DHT22;34807;51.456;7.244;2023-10-19T13:16:04;16.30;96.10
48998;DHT22;34807;51.456;7.244;2023-10-19T13:18:34;16.20;96.20
48998;DHT22;34807;51.456;7.244;2023-10-19T13:21:00;16.30;96.30
48998;DHT22;34807;51.456;7.244;2023-10-19T13:23:32;16.20;96.40
48998;DHT22;34807;51.456;7.244;2023-10-19T13:25:58;16.20;96.60
48998;DHT22;34807;51.456;7.244;2023-10-19T13:28:34;16.20;96.60
48998;DHT22;34807;51.456;7.244;2023-10-19T13:31:00;16.20;96.70
48998;DHT22;34807;51.456;7.244;2023-10-19T13:33:25;16.20;96.90
48998;DHT22;34807;51.456;7.244;2023-10-19T13:35:51;16.20;96.90
48998;DHT22;34807;51.456;7.244;2023-10-19T13:38:18;16.10;97.00
48998;DHT22;34807;51.456;7.244;2023-10-19T13:40:45;16.10;97.00
48998;DHT22;34807;51.456;7.244;2023-10-19T13:43:13;16.10;97.20
48998;DHT22;34807;51.456;7.244;2023-10-19T13:45:43;16.10;97.10
48998;DHT22;34807;51.456;7.244;2023-10-19T13:48:09;16.10;97.10
48998;DHT22;34807;51.456;7.244;2023-10-19T13:50:40;16.10;97.00
48998;DHT22;34807;51.456;7.244;2023-10-19T13:53:05;16.10;97.00
48998;DHT22;34807;51.456;7.244;2023-10-19T13:55:31;16.00;97.00
48998;DHT22;34807;51.456;7.244;2023-10-19T13:57:57;16.10;97.10
48998;DHT22;34807;51.456;7.244;2023-10-19T14:00:23;16.00;97.10
48998;DHT22;34807;51.456;7.244;2023-10-19T14:02:50;16.00;97.30
48998;DHT22;34807;51.456;7.244;2023-10-19T14:05:16;16.00;97.20
48998;DHT22;34807;51.456;7.244;2023-10-19T14:07:41;16.00;97.20
48998;DHT22;34807;51.456;7.244;2023-10-19T14:10:08;16.00;97.10
48998;DHT22;34807;51.456;7.244;2023-10-19T14:12:38;16.00;97.20
48998;DHT22;34807;51.456;7.244;2023-10-19T14:15:08;16.00;97.30
48998;DHT22;34807;51.456;7.244;2023-10-19T14:17:34;16.00;97.30
48998;DHT22;34807;51.456;7.244;2023-10-19T14:19:59;16.00;97.40
48998;DHT22;34807;51.456;7.244;2023-10-19T14:22:25;16.00;97.30
48998;DHT22;34807;51.456;7.244;2023-10-19T14:24:50;16.00;97.30
48998;DHT22;34807;51.456;7.244;2023-10-19T14:27:16;16.00;97.30
48998;DHT22;34807;51.456;7.244;2023-10-19T14:29:41;16.00;97.20
48998;DHT22;34807;51.456;7.244;2023-10-19T14:32:07;15.90;97.30
48998;DHT22;34807;51.456;7.244;2023-10-19T14:34:32;15.90;97.20
48998;DHT22;34807;51.456;7.244;2023-10-19T14:36:58;15.90;97.30
48998;DHT22;34807;51.456;7.244;2023-10-19T14:39:23;15.90;97.30
48998;DHT22;34807;51.456;7.244;2023-10-19T14:41:50;15.90;97.30
48998;DHT22;34807;51.456;7.244;2023-10-19T14:44:15;15.90;97.10
48998;DHT22;34807;51.456;7.244;2023-10-19T14:46:40;15.90;97.10
48998;DHT22;34807;51.456;7.244;2023-10-19T14:49:06;15.90;97.10
48998;DHT22;34807;51.456;7.244;2023-10-19T14:51:32;15.90;97.00
48998;DHT22;34807;51.456;7.244;2023-10-19T14:53:57;15.90;97.10
48998;DHT22;34807;51.456;7.244;2023-10-19T14:56:23;15.90;97.10
48998;DHT22;34807;51.456;7.244;2023-10-19T14:58:48;15.90;97.20
48998;DHT22;34807;51.456;7.244;2023-10-19T15:01:21;15.80;97.10
48998;DHT22;34807;51.456;7.244;2023-10-19T15:03:46;15.80;97.20
48998;DHT22;34807;51.456;7.244;2023-10-19T15:06:12;15.80;97.20
48998;DHT22;34807;51.456;7.244;2023-10-19T15:08:39;15.80;97.10
48998;DHT22;34807;51.456;7.244;2023-10-19T15:11:05;15.80;97.10
48998;DHT22;34807;51.456;7.244;2023-10-19T15:13:30;15.80;97.20
48998;DHT22;34807;51.456;7.244;2023-10-19T15:15:56;15.80;97.20
48998;DHT22;34807;51.456;7.244;2023-10-19T15:18:22;15.80;97.20
48998;DHT22;34807;51.456;7.244;2023-10-19T15:20:47;15.80;97.20
48998;DHT22;34807;51.456;7.244;2023-10-19T15:23:13;15.80;97.20
48998;DHT22;34807;51.456;7.244;2023-10-19T15:25:38;15.70;97.10
48998;DHT22;34807;51.456;7.244;2023-10-19T15:28:05;15.70;97.10
48998;DHT22;34807;51.456;7.244;2023-10-19T15:30:30;15.70;97.00
48998;DHT22;34807;51.456;7.244;2023-10-19T15:32:56;15.70;97.10
48998;DHT22;34807;51.456;7.244;2023-10-19T15:35:22;15.70;97.10
48998;DHT22;34807;51.456;7.244;2023-10-19T15:37:49;15.70;97.10
48998;DHT22;34807;51.456;7.244;2023-10-19T15:40:15;15.70;97.10
48998;DHT22;34807;51.456;7.244;2023-10-19T15:42:41;15.60;97.10
48998;DHT22;34807;51.456;7.244;2023-10-19T15:45:11;15.60;97.10
48998;DHT22;34807;51.456;7.244;2023-10-19T15:47:37;15.60;97.10
48998;DHT22;34807;51.456;7.244;2023-10-19T15:50:02;15.60;97.20
48998;DHT22;34807;51.456;7.244;2023-10-19T15:52:28;15.60;97.10
48998;DHT22;34807;51.456;7.244;2023-10-19T15:54:54;15.60;97.10
48998;DHT22;34807;51.456;7.244;2023-10-19T15:57:20;15.60;97.10
48998;DHT22;34807;51.456;7.244;2023-10-19T15:59:46;15.50;97.20
48998;DHT22;34807;51.456;7.244;2023-10-19T16:02:12;15.50;97.10
48998;DHT22;34807;51.456;7.244;2023-10-19T16:04:39;15.50;97.20
48998;DHT22;34807;51.456;7.244;2023-10-19T16:07:06;15.50;97.20
48998;DHT22;34807;51.456;7.244;2023-10-19T16:09:31;15.50;97.20
48998;DHT22;34807;51.456;7.244;2023-10-19T16:11:57;15.50;97.20
48998;DHT22;34807;51.456;7.244;2023-10-19T16:14:22;15.50;97.20
48998;DHT22;34807;51.456;7.244;2023-10-19T16:16:49;15.50;97.10
48998;DHT22;34807;51.456;7.244;2023-10-19T16:19:14;15.40;97.20
48998;DHT22;34807;51.456;7.244;2023-10-19T16:21:40;15.40;97.10
48998;DHT22;34807;51.456;7.244;2023-10-19T16:24:09;15.40;97.10
48998;DHT22;34807;51.456;7.244;2023-10-19T16:26:35;15.40;97.20
48998;DHT22;34807;51.456;7.244;2023-10-19T16:29:01;15.40;97.20
48998;DHT22;34807;51.456;7.244;2023-10-19T16:31:34;15.40;97.20
48998;DHT22;34807;51.456;7.244;2023-10-19T16:33:59;15.40;97.20
48998;DHT22;34807;51.456;7.244;2023-10-19T16:36:25;15.30;97.20
48998;DHT22;34807;51.456;7.244;2023-10-19T16:38:51;15.30;97.20
48998;DHT22;34807;51.456;7.244;2023-10-19T16:41:16;15.30;97.20
48998;DHT22;34807;51.456;7.244;2023-10-19T16:43:42;15.30;97.20
48998;DHT22;34807;51.456;7.244;2023-10-19T16:46:08;15.30;97.20
48998;DHT22;34807;51.456;7.244;2023-10-19T16:48:34;15.30;97.30
48998;DHT22;34807;51.456;7.244;2023-10-19T16:51:00;15.30;97.30
48998;DHT22;34807;51.456;7.244;2023-10-19T16:53:26;15.20;97.30